Armadores I — SY8463 — position and weather

sailwx.info

Track history (hours):
 
Tides and Currents Weather Stations Pressure Air Temp Water Temp Dewpoint Dewpoint Depression Visibility Wind Speed Wind Dir Waves Ship Positions

Armadores I

Last reported at 2017-Feb-27 12:08 UTC. Time now 2017-Feb-28 05:40 UTC.
Position N 37°57' E 023°37'.

Length 32 m.

Type: Tug. MMSI: 240694000.

Date/timePositionNaut miles runAvg speedWind from/ knotsBaromVisibWave heightAir tempDewpointWater temp
2017-Feb-27 12:08N 37°57' E 023°37'0 0.0
2017-Feb-27 11:34N 37°57' E 023°37'0 0.0
2017-Feb-27 10:34N 37°57' E 023°37'0 0.0
2017-Feb-27 09:34N 37°57' E 023°37'3 2.7
2017-Feb-27 08:34N 37°58' E 023°33'4 4.3
2017-Feb-27 07:33N 38°01' E 023°36'0 0.2
2017-Feb-27 06:34N 38°01' E 023°36'4 4.4
2017-Feb-27 05:34N 37°57' E 023°35'1 0.5
2017-Feb-27 04:34N 37°57' E 023°36'1 0.6
2017-Feb-27 03:34N 37°57' E 023°37'0 0.0
2017-Feb-26 09:14N 37°57' E 023°37'4 5.7
2017-Feb-26 08:33N 37°60' E 023°33'3 2.6
2017-Feb-26 07:33N 38°02' E 023°32'6 6.5
2017-Feb-26 06:33N 37°58' E 023°26'2 2.1
2017-Feb-26 05:34N 37°58' E 023°23'1 1.0
2017-Feb-26 04:33N 37°58' E 023°24'0 0.0
2017-Feb-26 03:33N 37°58' E 023°24'0 0.0
2017-Feb-26 02:33N 37°58' E 023°24'0 0.0
2017-Feb-26 01:33N 37°58' E 023°24'0 0.0
2017-Feb-26 00:33N 37°58' E 023°24'0 0.0
2017-Feb-25 23:33N 37°58' E 023°24'0 0.0
2017-Feb-25 22:33N 37°58' E 023°24'0 0.0
2017-Feb-25 21:33N 37°58' E 023°24'0 0.0
2017-Feb-25 20:33N 37°58' E 023°24'0 0.0
2017-Feb-25 19:33N 37°58' E 023°24'0 0.0
2017-Feb-25 18:34N 37°58' E 023°24'0 0.0
2017-Feb-25 17:33N 37°58' E 023°24'0 0.0
2017-Feb-25 16:34N 37°58' E 023°24'0 0.0
2017-Feb-25 15:33N 37°58' E 023°24'0 0.0
2017-Feb-25 14:34N 37°58' E 023°24'0 0.0
2017-Feb-25 13:33N 37°58' E 023°24'0 0.0
2017-Feb-25 12:34N 37°58' E 023°24'0 0.0
2017-Feb-25 11:33N 37°58' E 023°24'0 0.0
2017-Feb-25 10:34N 37°58' E 023°24'0 0.0
2017-Feb-25 09:33N 37°58' E 023°24'0 0.0
2017-Feb-25 08:33N 37°58' E 023°24'0 0.0
2017-Feb-25 07:33N 37°58' E 023°24'0 0.0
2017-Feb-25 06:33N 37°58' E 023°24'0 0.0
2017-Feb-25 05:33N 37°58' E 023°24'0 0.0
2017-Feb-25 04:33N 37°58' E 023°24'0 0.0
2017-Feb-25 03:33N 37°58' E 023°24'0 0.0
2017-Feb-25 02:33N 37°58' E 023°24'0 0.0
2017-Feb-25 01:33N 37°58' E 023°24'0 0.0
2017-Feb-25 00:33N 37°58' E 023°24'0 0.0
2017-Feb-24 23:34N 37°58' E 023°24'0 0.0
2017-Feb-24 22:33N 37°58' E 023°24'0 0.0
2017-Feb-24 21:33N 37°58' E 023°24'0 0.0
2017-Feb-24 20:34N 37°58' E 023°24'1 1.1
2017-Feb-24 19:33N 37°58' E 023°23'1 1.3
2017-Feb-24 18:33N 37°57' E 023°23'6 5.9
2017-Feb-24 17:33N 38°01' E 023°29'5 5.0
2017-Feb-24 16:33N 37°58' E 023°34'1 0.9
2017-Feb-24 15:33N 37°57' E 023°35'0 0.0
2017-Feb-24 14:34N 37°57' E 023°35'1 1.5
2017-Feb-24 13:33N 37°57' E 023°37'0 0.0
2017-Feb-24 12:33N 37°57' E 023°37'0 0.0
2017-Feb-24 11:33N 37°57' E 023°37'0 0.0
2017-Feb-24 10:33N 37°57' E 023°37'0 0.0
2017-Feb-24 09:33N 37°57' E 023°37'0 0.0
2017-Feb-24 08:33N 37°57' E 023°37'0 0.0
2017-Feb-24 07:33N 37°57' E 023°37'0 0.4
2017-Feb-24 06:33N 37°57' E 023°36'1 1.3
2017-Feb-24 05:33N 37°57' E 023°35'2 1.7
2017-Feb-24 04:33N 37°57' E 023°37'1 0.1
2017-Feb-23 13:34N 37°57' E 023°35'1 1.3
2017-Feb-23 12:33N 37°57' E 023°37'0 0.0
2017-Feb-23 11:33N 37°57' E 023°37'0 0.0
2017-Feb-23 10:33N 37°57' E 023°37'0 0.0
2017-Feb-23 09:33N 37°57' E 023°37'0 0.0
2017-Feb-23 08:33N 37°57' E 023°37'1 0.6
2017-Feb-23 07:34N 37°57' E 023°36'1 1.3
2017-Feb-23 06:33N 37°56' E 023°36'1 0.7
2017-Feb-23 05:33N 37°57' E 023°36'1 1.0
2017-Feb-23 04:33N 37°57' E 023°37'0 0.0
2017-Feb-23 03:34N 37°57' E 023°37'0 0.0
2017-Feb-23 02:33N 37°57' E 023°37'0 0.0
2017-Feb-23 01:34N 37°57' E 023°37'0 0.0
2017-Feb-23 00:33N 37°57' E 023°37'0 0.0
2017-Feb-22 23:33N 37°57' E 023°37'0 0.0
2017-Feb-22 22:33N 37°57' E 023°37'0 0.0
2017-Feb-22 21:33N 37°57' E 023°37'0 0.0
2017-Feb-22 20:33N 37°57' E 023°37'0 0.0
2017-Feb-22 19:33N 37°57' E 023°37'0 0.0
2017-Feb-22 18:33N 37°57' E 023°37'0 0.0
2017-Feb-22 17:33N 37°57' E 023°37'0 0.0
2017-Feb-22 16:33N 37°57' E 023°37'0 0.0
2017-Feb-22 15:33N 37°57' E 023°37'0 0.0
2017-Feb-22 14:33N 37°57' E 023°37'0 0.0
2017-Feb-22 13:33N 37°57' E 023°37'0 0.0
2017-Feb-22 12:33N 37°57' E 023°37'1 1.3
2017-Feb-22 11:34N 37°56' E 023°36'5 5.0
2017-Feb-22 10:33N 38°00' E 023°32'7 6.8
2017-Feb-22 09:34N 37°57' E 023°25'2 1.9
2017-Feb-22 08:33N 37°59' E 023°25'6 6.3
2017-Feb-22 07:33N 38°02' E 023°32'6 5.6
2017-Feb-22 06:33N 37°57' E 023°36'1 0.9
2017-Feb-22 05:34N 37°56' E 023°36'1 1.1
2017-Feb-22 04:34N 37°57' E 023°37'0 0.1
2017-Feb-21 19:33N 37°57' E 023°36'2 2.1
2017-Feb-21 18:34N 37°57' E 023°33'7 6.8
2017-Feb-21 17:34N 37°59' E 023°25'2 1.6
2017-Feb-21 16:34N 37°58' E 023°23'1 1.4
2017-Feb-21 15:34N 37°59' E 023°25'7 7.0
2017-Feb-21 14:34N 37°57' E 023°34'2 2.3
2017-Feb-21 13:34N 37°57' E 023°36'0 0.3
2017-Feb-21 12:34N 37°57' E 023°36'0 0.3
2017-Feb-21 11:33N 37°57' E 023°36'0 0.0
2017-Feb-21 10:34N 37°57' E 023°36'0 0.0
2017-Feb-21 09:34N 37°57' E 023°36'0 0.0
2017-Feb-21 08:33N 37°57' E 023°36'0 0.0
2017-Feb-21 07:34N 37°57' E 023°36'0 0.0
2017-Feb-21 06:34N 37°57' E 023°36'0 0.4
2017-Feb-21 05:33N 37°57' E 023°36'0 0.4
2017-Feb-21 04:33N 37°57' E 023°36'0 0.0
2017-Feb-20 11:33N 37°57' E 023°36'0 0.4
2017-Feb-20 10:34N 37°58' E 023°36'0 0.4
2017-Feb-20 09:34N 37°57' E 023°37'0 0.0
2017-Feb-20 08:33N 37°57' E 023°37'1 1.2
2017-Feb-20 07:33N 37°57' E 023°35'1 0.7
2017-Feb-20 06:33N 37°57' E 023°35'1 0.8
2017-Feb-20 05:34N 37°57' E 023°35'1 1.1
2017-Feb-20 04:34N 37°57' E 023°37'0 0.0
2017-Feb-19 13:26N 37°57' E 023°37'2 2.0
2017-Feb-19 12:33N 37°56' E 023°35'2 1.7
2017-Feb-19 11:33N 37°57' E 023°37'0 0.0
2017-Feb-19 10:33N 37°57' E 023°37'0 0.0
2017-Feb-19 09:33N 37°57' E 023°37'0 0.0
2017-Feb-19 08:33N 37°57' E 023°37'0 0.0
2017-Feb-19 07:33N 37°57' E 023°37'0 0.0
2017-Feb-19 06:33N 37°57' E 023°37'1 1.2
2017-Feb-19 05:33N 37°57' E 023°35'1 1.2
2017-Feb-19 04:33N 37°57' E 023°37'  
Track history (hours):
 
Tides and Currents Weather Stations Pressure Air Temp Water Temp Dewpoint Dewpoint Depression Visibility Wind Speed Wind Dir Waves Ship Positions

Armadores I

Last reported at 2017-Feb-27 12:08 UTC. Time now 2017-Feb-28 05:40 UTC.
Position N 37°57' E 023°37'.

Length 32 m.

Type: Tug. MMSI: 240694000.

Date/timePositionNaut miles runAvg speedWind from/ knotsBaromVisibWave heightAir tempDewpointWater temp
2017-Feb-27 12:08N 37°57' E 023°37'0 0.0
2017-Feb-27 11:34N 37°57' E 023°37'0 0.0
2017-Feb-27 10:34N 37°57' E 023°37'0 0.0
2017-Feb-27 09:34N 37°57' E 023°37'3 2.7
2017-Feb-27 08:34N 37°58' E 023°33'4 4.3
2017-Feb-27 07:33N 38°01' E 023°36'0 0.2
2017-Feb-27 06:34N 38°01' E 023°36'4 4.4
2017-Feb-27 05:34N 37°57' E 023°35'1 0.5
2017-Feb-27 04:34N 37°57' E 023°36'1 0.6
2017-Feb-27 03:34N 37°57' E 023°37'0 0.0
2017-Feb-26 09:14N 37°57' E 023°37'4 5.7
2017-Feb-26 08:33N 37°60' E 023°33'3 2.6
2017-Feb-26 07:33N 38°02' E 023°32'6 6.5
2017-Feb-26 06:33N 37°58' E 023°26'2 2.1
2017-Feb-26 05:34N 37°58' E 023°23'1 1.0
2017-Feb-26 04:33N 37°58' E 023°24'0 0.0
2017-Feb-26 03:33N 37°58' E 023°24'0 0.0
2017-Feb-26 02:33N 37°58' E 023°24'0 0.0
2017-Feb-26 01:33N 37°58' E 023°24'0 0.0
2017-Feb-26 00:33N 37°58' E 023°24'0 0.0
2017-Feb-25 23:33N 37°58' E 023°24'0 0.0
2017-Feb-25 22:33N 37°58' E 023°24'0 0.0
2017-Feb-25 21:33N 37°58' E 023°24'0 0.0
2017-Feb-25 20:33N 37°58' E 023°24'0 0.0
2017-Feb-25 19:33N 37°58' E 023°24'0 0.0
2017-Feb-25 18:34N 37°58' E 023°24'0 0.0
2017-Feb-25 17:33N 37°58' E 023°24'0 0.0
2017-Feb-25 16:34N 37°58' E 023°24'0 0.0
2017-Feb-25 15:33N 37°58' E 023°24'0 0.0
2017-Feb-25 14:34N 37°58' E 023°24'0 0.0
2017-Feb-25 13:33N 37°58' E 023°24'0 0.0
2017-Feb-25 12:34N 37°58' E 023°24'0 0.0
2017-Feb-25 11:33N 37°58' E 023°24'0 0.0
2017-Feb-25 10:34N 37°58' E 023°24'0 0.0
2017-Feb-25 09:33N 37°58' E 023°24'0 0.0
2017-Feb-25 08:33N 37°58' E 023°24'0 0.0
2017-Feb-25 07:33N 37°58' E 023°24'0 0.0
2017-Feb-25 06:33N 37°58' E 023°24'0 0.0
2017-Feb-25 05:33N 37°58' E 023°24'0 0.0
2017-Feb-25 04:33N 37°58' E 023°24'0 0.0
2017-Feb-25 03:33N 37°58' E 023°24'0 0.0
2017-Feb-25 02:33N 37°58' E 023°24'0 0.0
2017-Feb-25 01:33N 37°58' E 023°24'0 0.0
2017-Feb-25 00:33N 37°58' E 023°24'0 0.0
2017-Feb-24 23:34N 37°58' E 023°24'0 0.0
2017-Feb-24 22:33N 37°58' E 023°24'0 0.0
2017-Feb-24 21:33N 37°58' E 023°24'0 0.0
2017-Feb-24 20:34N 37°58' E 023°24'1 1.1
2017-Feb-24 19:33N 37°58' E 023°23'1 1.3
2017-Feb-24 18:33N 37°57' E 023°23'6 5.9
2017-Feb-24 17:33N 38°01' E 023°29'5 5.0
2017-Feb-24 16:33N 37°58' E 023°34'1 0.9
2017-Feb-24 15:33N 37°57' E 023°35'0 0.0
2017-Feb-24 14:34N 37°57' E 023°35'1 1.5
2017-Feb-24 13:33N 37°57' E 023°37'0 0.0
2017-Feb-24 12:33N 37°57' E 023°37'0 0.0
2017-Feb-24 11:33N 37°57' E 023°37'0 0.0
2017-Feb-24 10:33N 37°57' E 023°37'0 0.0
2017-Feb-24 09:33N 37°57' E 023°37'0 0.0
2017-Feb-24 08:33N 37°57' E 023°37'0 0.0
2017-Feb-24 07:33N 37°57' E 023°37'0 0.4
2017-Feb-24 06:33N 37°57' E 023°36'1 1.3
2017-Feb-24 05:33N 37°57' E 023°35'2 1.7
2017-Feb-24 04:33N 37°57' E 023°37'1 0.1
2017-Feb-23 13:34N 37°57' E 023°35'1 1.3
2017-Feb-23 12:33N 37°57' E 023°37'0 0.0
2017-Feb-23 11:33N 37°57' E 023°37'0 0.0
2017-Feb-23 10:33N 37°57' E 023°37'0 0.0
2017-Feb-23 09:33N 37°57' E 023°37'0 0.0
2017-Feb-23 08:33N 37°57' E 023°37'1 0.6
2017-Feb-23 07:34N 37°57' E 023°36'1 1.3
2017-Feb-23 06:33N 37°56' E 023°36'1 0.7
2017-Feb-23 05:33N 37°57' E 023°36'1 1.0
2017-Feb-23 04:33N 37°57' E 023°37'0 0.0
2017-Feb-23 03:34N 37°57' E 023°37'0 0.0
2017-Feb-23 02:33N 37°57' E 023°37'0 0.0
2017-Feb-23 01:34N 37°57' E 023°37'0 0.0
2017-Feb-23 00:33N 37°57' E 023°37'0 0.0
2017-Feb-22 23:33N 37°57' E 023°37'0 0.0
2017-Feb-22 22:33N 37°57' E 023°37'0 0.0
2017-Feb-22 21:33N 37°57' E 023°37'0 0.0
2017-Feb-22 20:33N 37°57' E 023°37'0 0.0
2017-Feb-22 19:33N 37°57' E 023°37'0 0.0
2017-Feb-22 18:33N 37°57' E 023°37'0 0.0
2017-Feb-22 17:33N 37°57' E 023°37'0 0.0
2017-Feb-22 16:33N 37°57' E 023°37'0 0.0
2017-Feb-22 15:33N 37°57' E 023°37'0 0.0
2017-Feb-22 14:33N 37°57' E 023°37'0 0.0
2017-Feb-22 13:33N 37°57' E 023°37'0 0.0
2017-Feb-22 12:33N 37°57' E 023°37'1 1.3
2017-Feb-22 11:34N 37°56' E 023°36'5 5.0
2017-Feb-22 10:33N 38°00' E 023°32'7 6.8
2017-Feb-22 09:34N 37°57' E 023°25'2 1.9
2017-Feb-22 08:33N 37°59' E 023°25'6 6.3
2017-Feb-22 07:33N 38°02' E 023°32'6 5.6
2017-Feb-22 06:33N 37°57' E 023°36'1 0.9
2017-Feb-22 05:34N 37°56' E 023°36'1 1.1
2017-Feb-22 04:34N 37°57' E 023°37'0 0.1
2017-Feb-21 19:33N 37°57' E 023°36'2 2.1
2017-Feb-21 18:34N 37°57' E 023°33'7 6.8
2017-Feb-21 17:34N 37°59' E 023°25'2 1.6
2017-Feb-21 16:34N 37°58' E 023°23'1 1.4
2017-Feb-21 15:34N 37°59' E 023°25'7 7.0
2017-Feb-21 14:34N 37°57' E 023°34'2 2.3
2017-Feb-21 13:34N 37°57' E 023°36'0 0.3
2017-Feb-21 12:34N 37°57' E 023°36'0 0.3
2017-Feb-21 11:33N 37°57' E 023°36'0 0.0
2017-Feb-21 10:34N 37°57' E 023°36'0 0.0
2017-Feb-21 09:34N 37°57' E 023°36'0 0.0
2017-Feb-21 08:33N 37°57' E 023°36'0 0.0
2017-Feb-21 07:34N 37°57' E 023°36'0 0.0
2017-Feb-21 06:34N 37°57' E 023°36'0 0.4
2017-Feb-21 05:33N 37°57' E 023°36'0 0.4
2017-Feb-21 04:33N 37°57' E 023°36'0 0.0
2017-Feb-20 11:33N 37°57' E 023°36'0 0.4
2017-Feb-20 10:34N 37°58' E 023°36'0 0.4
2017-Feb-20 09:34N 37°57' E 023°37'0 0.0
2017-Feb-20 08:33N 37°57' E 023°37'1 1.2
2017-Feb-20 07:33N 37°57' E 023°35'1 0.7
2017-Feb-20 06:33N 37°57' E 023°35'1 0.8
2017-Feb-20 05:34N 37°57' E 023°35'1 1.1
2017-Feb-20 04:34N 37°57' E 023°37'0 0.0
2017-Feb-19 13:26N 37°57' E 023°37'2 2.0
2017-Feb-19 12:33N 37°56' E 023°35'2 1.7
2017-Feb-19 11:33N 37°57' E 023°37'0 0.0
2017-Feb-19 10:33N 37°57' E 023°37'0 0.0
2017-Feb-19 09:33N 37°57' E 023°37'0 0.0
2017-Feb-19 08:33N 37°57' E 023°37'0 0.0
2017-Feb-19 07:33N 37°57' E 023°37'0 0.0
2017-Feb-19 06:33N 37°57' E 023°37'1 1.2
2017-Feb-19 05:33N 37°57' E 023°35'1 1.2
2017-Feb-19 04:33N 37°57' E 023°37'  

Dump ship's entire track history